createdAt,value
2017-10-07T00:01:10.486Z,11.80
2017-10-07T00:03:46.319Z,11.70
2017-10-07T00:06:15.765Z,11.70
2017-10-07T00:08:44.477Z,11.60
2017-10-07T00:11:13.511Z,11.80
2017-10-07T00:13:48.466Z,11.80
2017-10-07T00:16:17.166Z,11.80
2017-10-07T00:18:48.107Z,11.70
2017-10-07T00:21:16.821Z,11.70
2017-10-07T00:24:08.676Z,11.70
2017-10-07T00:26:38.133Z,11.70
2017-10-07T00:29:07.684Z,11.60
2017-10-07T00:31:36.388Z,11.70
2017-10-07T00:34:05.071Z,11.70
2017-10-07T00:36:33.793Z,11.70
2017-10-07T00:39:02.484Z,11.80
2017-10-07T00:41:31.184Z,11.70
2017-10-07T00:43:59.895Z,11.70
2017-10-07T00:46:29.575Z,11.60
2017-10-07T00:48:58.291Z,11.60
2017-10-07T00:51:27.002Z,11.70
2017-10-07T00:53:55.691Z,11.70
2017-10-07T00:56:31.407Z,11.70
2017-10-07T00:59:19.341Z,11.70
2017-10-07T01:01:54.291Z,11.60
2017-10-07T01:04:22.978Z,11.60
2017-10-07T01:06:51.667Z,11.60
2017-10-07T01:09:21.219Z,11.60
2017-10-07T01:11:51.899Z,11.60
2017-10-07T01:14:34.555Z,11.60
2017-10-07T01:17:04.255Z,11.60
2017-10-07T01:19:32.936Z,11.60
2017-10-07T01:22:01.623Z,11.60
2017-10-07T01:24:30.351Z,11.70
2017-10-07T01:26:59.912Z,11.70
2017-10-07T01:29:37.355Z,11.70
2017-10-07T01:32:06.066Z,11.70
2017-10-07T01:34:34.791Z,11.70
2017-10-07T01:37:03.478Z,11.70
2017-10-07T01:39:32.159Z,11.60
2017-10-07T01:42:01.618Z,11.60
2017-10-07T01:44:33.371Z,11.50
2017-10-07T01:47:02.887Z,11.60
2017-10-07T01:49:31.575Z,11.60
2017-10-07T01:52:00.272Z,11.70
2017-10-07T01:54:39.877Z,11.70
2017-10-07T01:57:08.594Z,11.80
2017-10-07T01:59:38.146Z,11.70
2017-10-07T02:02:06.835Z,11.70
2017-10-07T02:04:36.398Z,11.70
2017-10-07T02:07:05.090Z,11.70
2017-10-07T02:09:33.799Z,11.70
2017-10-07T02:12:03.252Z,11.60
2017-10-07T02:14:38.183Z,11.50
2017-10-07T02:17:07.696Z,11.50
2017-10-07T02:19:36.382Z,11.50
2017-10-07T02:22:05.071Z,11.50
2017-10-07T02:24:34.679Z,11.50
2017-10-07T02:27:10.444Z,11.50
2017-10-07T02:29:39.133Z,11.40
2017-10-07T02:32:14.786Z,11.40
2017-10-07T02:34:43.482Z,11.30
2017-10-07T02:37:12.193Z,11.40
2017-10-07T02:39:40.900Z,11.40
2017-10-07T02:42:09.595Z,11.30
2017-10-07T02:44:38.314Z,11.30
2017-10-07T02:47:06.997Z,11.30
2017-10-07T02:49:36.582Z,11.40
2017-10-07T02:52:05.288Z,11.30
2017-10-07T02:54:33.994Z,11.40
2017-10-07T02:57:03.497Z,11.40
2017-10-07T02:59:39.323Z,11.40
2017-10-07T03:02:08.035Z,11.40
2017-10-07T03:04:37.519Z,11.40
2017-10-07T03:07:06.224Z,11.30
2017-10-07T03:09:41.205Z,11.40
2017-10-07T03:12:16.143Z,11.30
2017-10-07T03:14:46.403Z,11.40
2017-10-07T03:17:15.099Z,11.40
2017-10-07T03:19:44.563Z,11.40
2017-10-07T03:22:13.289Z,11.30
2017-10-07T03:24:43.709Z,11.40
2017-10-07T03:27:12.409Z,11.40
2017-10-07T03:29:41.968Z,11.40
2017-10-07T03:32:11.459Z,11.30
2017-10-07T03:34:40.166Z,11.30
2017-10-07T03:37:08.860Z,11.40
2017-10-07T03:39:39.180Z,11.40
2017-10-07T03:42:07.876Z,11.30
2017-10-07T03:44:36.625Z,11.30
2017-10-07T03:47:05.329Z,11.30
2017-10-07T03:49:34.023Z,11.30
2017-10-07T03:52:02.719Z,11.40
2017-10-07T03:54:37.698Z,11.40
2017-10-07T03:57:06.427Z,11.40
2017-10-07T03:59:35.128Z,11.30
2017-10-07T04:02:03.840Z,11.30
2017-10-07T04:04:33.304Z,11.30
2017-10-07T04:07:02.026Z,11.30
2017-10-07T04:09:30.716Z,11.30
2017-10-07T04:12:00.311Z,11.30
2017-10-07T04:14:29.015Z,11.30
2017-10-07T04:16:57.731Z,11.30
2017-10-07T04:19:26.424Z,11.30
2017-10-07T04:21:56.006Z,11.30
2017-10-07T04:24:24.687Z,11.30
2017-10-07T04:26:54.223Z,11.30
2017-10-07T04:29:22.919Z,11.10
2017-10-07T04:31:57.894Z,11.20
2017-10-07T04:34:26.611Z,11.20
2017-10-07T04:36:55.309Z,11.20
2017-10-07T04:39:24.009Z,11.30
2017-10-07T04:41:55.559Z,11.40
2017-10-07T04:44:25.153Z,11.50
2017-10-07T04:46:53.894Z,11.50
2017-10-07T04:49:22.577Z,11.60
2017-10-07T04:51:51.263Z,11.60
2017-10-07T04:54:19.954Z,11.60
2017-10-07T04:56:48.638Z,11.70
2017-10-07T04:59:17.343Z,11.60
2017-10-07T05:01:46.023Z,11.60
2017-10-07T05:04:15.471Z,11.60
2017-10-07T05:06:50.299Z,11.60
2017-10-07T05:09:18.988Z,11.70
2017-10-07T05:11:55.378Z,11.70
2017-10-07T05:14:25.042Z,11.80
2017-10-07T05:16:53.732Z,11.80
2017-10-07T05:19:22.432Z,11.80
2017-10-07T05:21:51.123Z,11.90
2017-10-07T05:24:19.834Z,11.90
2017-10-07T05:26:54.689Z,11.90
2017-10-07T05:29:35.308Z,11.80
2017-10-07T05:32:04.000Z,11.80
2017-10-07T05:34:32.683Z,11.70
2017-10-07T05:37:03.129Z,11.70
2017-10-07T05:39:37.954Z,11.60
2017-10-07T05:42:06.673Z,11.70
2017-10-07T05:44:36.118Z,11.80
2017-10-07T05:47:04.814Z,11.80
2017-10-07T05:49:33.487Z,11.90
2017-10-07T05:52:03.035Z,11.90
2017-10-07T05:54:31.751Z,11.90
2017-10-07T05:57:00.443Z,11.90
2017-10-07T05:59:35.008Z,11.90
2017-10-07T06:02:03.694Z,12.00
2017-10-07T06:04:32.391Z,12.00
2017-10-07T06:07:01.983Z,12.00
2017-10-07T06:09:30.667Z,12.00
2017-10-07T06:12:05.531Z,12.00
2017-10-07T06:14:40.439Z,12.00
2017-10-07T06:17:09.159Z,12.00
2017-10-07T06:19:44.076Z,12.00
2017-10-07T06:22:13.012Z,12.10
2017-10-07T06:24:41.768Z,12.20
2017-10-07T06:27:18.658Z,12.30
2017-10-07T06:29:48.108Z,12.40
2017-10-07T06:32:16.824Z,12.30
2017-10-07T06:34:46.312Z,12.50
2017-10-07T06:37:21.140Z,12.40
2017-10-07T06:39:50.884Z,12.50
2017-10-07T06:42:26.592Z,12.70
2017-10-07T06:45:01.459Z,12.60
2017-10-07T06:47:30.924Z,12.80
2017-10-07T06:50:00.431Z,12.80
2017-10-07T06:52:29.198Z,12.80
2017-10-07T06:54:57.903Z,12.80
2017-10-07T06:57:32.989Z,12.80
2017-10-07T07:00:01.706Z,12.80
2017-10-07T07:02:36.839Z,12.80
2017-10-07T07:05:05.527Z,12.80
2017-10-07T07:07:34.216Z,12.70
2017-10-07T07:10:07.907Z,12.80
2017-10-07T07:12:42.731Z,12.80
2017-10-07T07:15:17.678Z,12.80
2017-10-07T07:17:46.390Z,12.60
2017-10-07T07:20:15.916Z,12.50
2017-10-07T07:22:44.804Z,12.50
2017-10-07T07:25:13.580Z,12.50
2017-10-07T07:27:42.976Z,12.70
2017-10-07T07:30:12.538Z,12.90
2017-10-07T07:32:41.269Z,12.90
2017-10-07T07:35:10.009Z,13.00
2017-10-07T07:37:45.031Z,13.20
2017-10-07T07:40:13.739Z,13.40
2017-10-07T07:42:48.659Z,13.50
2017-10-07T07:45:23.528Z,13.60
2017-10-07T07:47:58.462Z,13.60
2017-10-07T07:50:27.175Z,13.70
2017-10-07T07:52:55.903Z,14.00
2017-10-07T07:55:24.565Z,14.40
2017-10-07T07:57:54.219Z,14.80
2017-10-07T08:00:24.076Z,15.00
2017-10-07T08:02:53.315Z,15.10
2017-10-07T08:05:22.015Z,15.20
2017-10-07T08:07:50.699Z,15.20
2017-10-07T08:10:19.400Z,15.20
2017-10-07T08:12:48.086Z,15.20
2017-10-07T08:15:23.027Z,15.40
2017-10-07T08:17:52.688Z,15.40
2017-10-07T08:20:21.635Z,15.30
2017-10-07T08:22:50.326Z,15.10
2017-10-07T08:25:19.019Z,14.90
2017-10-07T08:27:53.983Z,14.70
2017-10-07T08:30:29.527Z,15.40
2017-10-07T08:32:58.230Z,15.40
2017-10-07T08:35:26.916Z,15.90
2017-10-07T08:37:55.595Z,16.60
2017-10-07T08:40:24.275Z,17.10
2017-10-07T08:42:52.976Z,17.10
2017-10-07T08:45:22.561Z,17.50
2017-10-07T08:47:51.304Z,18.00
2017-10-07T08:50:20.752Z,18.60
2017-10-07T08:52:49.442Z,18.50
2017-10-07T08:55:18.127Z,19.50
2017-10-07T08:57:46.842Z,20.40
2017-10-07T09:00:16.304Z,22.10
2017-10-07T09:02:47.875Z,22.00
2017-10-07T09:05:16.550Z,22.30
2017-10-07T09:07:45.226Z,22.20
2017-10-07T09:10:20.188Z,22.10
2017-10-07T09:12:48.864Z,22.20
2017-10-07T09:15:23.946Z,21.70
2017-10-07T09:17:53.519Z,19.70
2017-10-07T09:20:22.187Z,19.60
2017-10-07T09:22:57.140Z,19.50
2017-10-07T09:25:25.823Z,20.00
2017-10-07T09:27:54.512Z,20.60
2017-10-07T09:30:23.186Z,21.60
2017-10-07T09:32:56.919Z,22.50
2017-10-07T09:35:31.715Z,23.00
2017-10-07T09:38:00.427Z,22.80
2017-10-07T09:40:35.359Z,22.70
2017-10-07T09:43:04.231Z,23.00
2017-10-07T09:45:39.225Z,23.40
2017-10-07T09:48:08.020Z,23.30
2017-10-07T09:50:36.710Z,22.50
2017-10-07T09:53:05.388Z,22.10
2017-10-07T09:55:42.199Z,22.50
2017-10-07T09:58:17.056Z,23.20
2017-10-07T10:00:45.782Z,24.00
2017-10-07T10:03:20.726Z,24.30
2017-10-07T10:06:00.008Z,25.40
2017-10-07T10:08:28.701Z,25.30
2017-10-07T10:11:04.241Z,25.90
2017-10-07T10:13:32.992Z,25.80
2017-10-07T10:16:01.749Z,25.40
2017-10-07T10:18:30.425Z,25.40
2017-10-07T10:20:59.880Z,26.90
2017-10-07T10:23:28.588Z,26.80
2017-10-07T10:26:03.365Z,27.20
2017-10-07T10:28:32.072Z,27.70
2017-10-07T10:31:02.388Z,27.30
2017-10-07T10:33:31.075Z,27.20
2017-10-07T10:35:59.759Z,27.60
2017-10-07T10:38:28.466Z,28.50
2017-10-07T10:40:57.167Z,29.10
2017-10-07T10:43:25.860Z,29.50
2017-10-07T10:45:54.540Z,29.90
2017-10-07T10:48:23.998Z,27.10
2017-10-07T10:50:52.684Z,26.90
2017-10-07T10:53:24.741Z,25.50
2017-10-07T10:55:53.402Z,24.20
2017-10-07T10:58:22.093Z,23.10
2017-10-07T11:00:55.880Z,22.20
2017-10-07T11:03:25.440Z,21.40
2017-10-07T11:05:55.767Z,20.20
2017-10-07T11:08:33.006Z,20.10
2017-10-07T11:11:01.728Z,19.80
2017-10-07T11:13:30.392Z,19.50
2017-10-07T11:15:59.119Z,19.00
2017-10-07T11:18:27.792Z,18.50
2017-10-07T11:20:57.281Z,18.30
2017-10-07T11:23:33.145Z,18.20
2017-10-07T11:26:01.828Z,18.60
2017-10-07T11:28:37.391Z,18.60
2017-10-07T11:31:06.107Z,18.50
2017-10-07T11:33:35.555Z,19.10
2017-10-07T11:36:04.359Z,19.00
2017-10-07T11:38:38.259Z,19.70
2017-10-07T11:41:07.019Z,19.60
2017-10-07T11:43:41.784Z,19.20
2017-10-07T11:46:10.493Z,18.80
2017-10-07T11:48:44.151Z,18.30
2017-10-07T11:51:12.855Z,18.20
2017-10-07T11:53:48.575Z,17.50
2017-10-07T11:56:17.297Z,17.40
2017-10-07T11:58:46.011Z,17.40
2017-10-07T12:01:22.107Z,17.60
2017-10-07T12:03:50.904Z,18.10
2017-10-07T12:06:19.577Z,18.50
2017-10-07T12:08:49.911Z,19.10
2017-10-07T12:11:20.449Z,19.00
2017-10-07T12:13:49.999Z,19.40
2017-10-07T12:16:19.440Z,20.40
2017-10-07T12:18:48.135Z,20.30
2017-10-07T12:21:16.929Z,20.60
2017-10-07T12:23:45.683Z,20.80
2017-10-07T12:26:16.394Z,21.10
2017-10-07T12:28:51.389Z,21.30
2017-10-07T12:31:20.094Z,21.30
2017-10-07T12:33:49.535Z,21.50
2017-10-07T12:36:21.035Z,22.40
2017-10-07T12:38:50.487Z,23.60
2017-10-07T12:41:25.335Z,23.50
2017-10-07T12:43:54.159Z,25.40
2017-10-07T12:46:22.864Z,26.60
2017-10-07T12:48:55.367Z,27.20
2017-10-07T12:51:24.042Z,27.00
2017-10-07T12:53:58.983Z,26.30
2017-10-07T12:56:27.655Z,26.00
2017-10-07T12:58:56.351Z,26.50
2017-10-07T13:01:25.045Z,26.50
2017-10-07T13:03:53.726Z,25.80
2017-10-07T13:06:28.691Z,24.70
2017-10-07T13:09:03.495Z,23.50
2017-10-07T13:11:38.337Z,22.40
2017-10-07T13:14:07.922Z,21.70
2017-10-07T13:16:36.591Z,21.20
2017-10-07T13:19:05.287Z,20.70
2017-10-07T13:21:40.990Z,21.30
2017-10-07T13:24:11.628Z,21.20
2017-10-07T13:26:40.296Z,22.90
2017-10-07T13:29:08.988Z,24.60
2017-10-07T13:31:37.674Z,24.70
2017-10-07T13:34:13.226Z,23.40
2017-10-07T13:36:41.899Z,23.30
2017-10-07T13:39:16.904Z,23.10
2017-10-07T13:41:45.575Z,22.60
2017-10-07T13:44:14.301Z,22.00
2017-10-07T13:46:43.792Z,21.30
2017-10-07T13:49:12.528Z,21.20
2017-10-07T13:51:41.235Z,20.90
2017-10-07T13:54:16.243Z,20.60
2017-10-07T13:56:51.052Z,20.30
2017-10-07T13:59:26.027Z,19.90
2017-10-07T14:02:01.699Z,19.30
2017-10-07T14:04:30.422Z,19.20
2017-10-07T14:06:59.107Z,19.10
2017-10-07T14:09:28.657Z,18.90
2017-10-07T14:12:03.486Z,18.70
2017-10-07T14:14:32.212Z,18.60
2017-10-07T14:17:00.895Z,18.50
2017-10-07T14:19:35.809Z,18.40
2017-10-07T14:22:04.592Z,18.30
2017-10-07T14:24:33.275Z,18.30
2017-10-07T14:27:01.979Z,18.20
2017-10-07T14:29:30.654Z,18.20
2017-10-07T14:32:00.207Z,18.10
2017-10-07T14:34:29.752Z,17.90
2017-10-07T14:36:58.462Z,17.80
2017-10-07T14:39:33.241Z,17.60
2017-10-07T14:42:01.967Z,17.50
2017-10-07T14:44:30.619Z,17.40
2017-10-07T14:46:59.307Z,17.40
2017-10-07T14:49:28.007Z,17.40
2017-10-07T14:52:02.775Z,17.30
2017-10-07T14:54:37.706Z,17.30
2017-10-07T14:57:06.401Z,17.20
2017-10-07T14:59:35.084Z,17.30
2017-10-07T15:02:04.070Z,17.20
2017-10-07T15:04:32.824Z,17.30
2017-10-07T15:07:11.823Z,17.40
2017-10-07T15:09:40.639Z,17.40
2017-10-07T15:12:10.176Z,17.30
2017-10-07T15:14:45.365Z,17.30
2017-10-07T15:17:14.070Z,17.30
2017-10-07T15:19:48.936Z,17.20
2017-10-07T15:22:17.640Z,17.10
2017-10-07T15:24:52.570Z,17.10
2017-10-07T15:27:21.432Z,17.10
2017-10-07T15:29:50.167Z,17.20
2017-10-07T15:32:18.859Z,17.20
2017-10-07T15:34:48.411Z,17.20
2017-10-07T15:37:17.109Z,17.20
2017-10-07T15:39:52.036Z,17.10
2017-10-07T15:42:26.959Z,17.00
2017-10-07T15:45:01.780Z,17.00
2017-10-07T15:47:36.576Z,16.90
2017-10-07T15:50:12.203Z,16.80
2017-10-07T15:52:47.685Z,16.70
2017-10-07T15:55:22.483Z,16.80
2017-10-07T15:57:57.285Z,16.60
2017-10-07T16:00:32.159Z,16.50
2017-10-07T16:03:00.843Z,16.50
2017-10-07T16:05:29.528Z,16.50
2017-10-07T16:07:58.217Z,16.40
2017-10-07T16:10:33.238Z,16.40
2017-10-07T16:13:02.060Z,16.30
2017-10-07T16:15:31.604Z,16.30
2017-10-07T16:18:00.270Z,16.20
2017-10-07T16:20:28.959Z,16.20
2017-10-07T16:22:57.636Z,16.20
2017-10-07T16:25:32.676Z,16.10
2017-10-07T16:28:01.355Z,16.00
2017-10-07T16:30:30.034Z,15.90
2017-10-07T16:32:59.487Z,15.70
2017-10-07T16:35:34.276Z,15.70
2017-10-07T16:38:02.979Z,15.60
2017-10-07T16:40:35.980Z,15.50
2017-10-07T16:43:05.547Z,15.40
2017-10-07T16:45:34.995Z,15.40
2017-10-07T16:48:10.662Z,15.30
2017-10-07T16:50:45.660Z,15.30
2017-10-07T16:53:14.367Z,15.20
2017-10-07T16:55:43.083Z,15.20
2017-10-07T16:58:12.650Z,15.10
2017-10-07T17:00:41.350Z,15.10
2017-10-07T17:03:10.032Z,15.00
2017-10-07T17:05:39.723Z,15.00
2017-10-07T17:08:08.411Z,14.90
2017-10-07T17:10:37.087Z,14.90
2017-10-07T17:13:16.859Z,14.80
2017-10-07T17:15:47.588Z,14.80
2017-10-07T17:18:22.719Z,14.80
2017-10-07T17:20:52.247Z,14.70
2017-10-07T17:23:21.387Z,14.60
2017-10-07T17:25:50.909Z,14.60
2017-10-07T17:28:20.553Z,14.60
2017-10-07T17:30:56.678Z,14.50
2017-10-07T17:33:32.984Z,14.60
2017-10-07T17:36:09.016Z,14.60
2017-10-07T17:38:43.786Z,14.50
2017-10-07T17:41:12.515Z,14.50
2017-10-07T17:43:48.064Z,14.50
2017-10-07T17:46:24.124Z,14.50
2017-10-07T17:48:55.765Z,14.40
2017-10-07T17:51:24.501Z,14.40
2017-10-07T17:53:53.962Z,14.30
2017-10-07T17:56:24.391Z,14.30
2017-10-07T17:58:59.624Z,14.30
2017-10-07T18:01:34.547Z,14.30
2017-10-07T18:04:10.017Z,14.30
2017-10-07T18:06:38.712Z,14.30
2017-10-07T18:09:08.183Z,14.30
2017-10-07T18:11:43.008Z,14.30
2017-10-07T18:14:11.695Z,14.30
2017-10-07T18:16:46.874Z,14.40
2017-10-07T18:19:21.762Z,14.30
2017-10-07T18:21:50.475Z,14.30
2017-10-07T18:24:25.812Z,14.30
2017-10-07T18:27:02.789Z,14.20
2017-10-07T18:29:37.695Z,14.30
2017-10-07T18:32:06.515Z,14.20
2017-10-07T18:34:35.187Z,14.20
2017-10-07T18:37:03.871Z,14.20
2017-10-07T18:39:32.576Z,14.20
2017-10-07T18:42:07.622Z,14.20
2017-10-07T18:44:37.263Z,14.20
2017-10-07T18:47:06.844Z,14.20
2017-10-07T18:49:37.187Z,14.20
2017-10-07T18:52:11.963Z,14.10
2017-10-07T18:54:41.523Z,14.20
2017-10-07T18:57:16.444Z,14.10
2017-10-07T18:59:45.151Z,14.20
2017-10-07T19:02:20.844Z,14.10
2017-10-07T19:04:56.768Z,14.00
2017-10-07T19:07:25.451Z,14.00
2017-10-07T19:10:00.289Z,14.00
2017-10-07T19:12:29.951Z,14.10
2017-10-07T19:14:58.638Z,14.00
2017-10-07T19:17:27.327Z,14.10
2017-10-07T19:19:56.059Z,14.20
2017-10-07T19:22:31.171Z,14.20
2017-10-07T19:25:01.599Z,14.30
2017-10-07T19:27:35.767Z,14.20
2017-10-07T19:30:04.471Z,14.20
2017-10-07T19:32:39.296Z,14.10
2017-10-07T19:35:20.256Z,14.20
2017-10-07T19:37:56.151Z,14.20
2017-10-07T19:40:25.804Z,14.20
2017-10-07T19:43:01.567Z,14.20
2017-10-07T19:45:32.443Z,14.20
2017-10-07T19:48:07.383Z,14.10
2017-10-07T19:50:36.121Z,14.20
2017-10-07T19:53:04.836Z,14.20
2017-10-07T19:55:40.391Z,14.10
2017-10-07T19:58:09.219Z,14.10
2017-10-07T20:00:37.994Z,14.20
2017-10-07T20:03:06.707Z,14.20
2017-10-07T20:05:44.210Z,14.20
2017-10-07T20:08:12.926Z,14.20
2017-10-07T20:10:47.901Z,14.20
2017-10-07T20:13:22.879Z,14.20
2017-10-07T20:15:52.650Z,14.20
2017-10-07T20:18:28.413Z,14.20
2017-10-07T20:20:57.118Z,14.10
2017-10-07T20:23:32.093Z,14.10
2017-10-07T20:26:00.950Z,14.10
2017-10-07T20:28:30.499Z,13.90
2017-10-07T20:31:00.936Z,13.80
2017-10-07T20:33:29.615Z,13.70
2017-10-07T20:35:58.912Z,13.70
2017-10-07T20:38:27.980Z,13.70
2017-10-07T20:40:57.422Z,13.60
2017-10-07T20:43:26.219Z,13.60
2017-10-07T20:45:55.570Z,13.50
2017-10-07T20:48:25.086Z,13.50
2017-10-07T20:51:02.005Z,13.40
2017-10-07T20:53:30.683Z,13.40
2017-10-07T20:55:59.387Z,13.40
2017-10-07T20:58:28.394Z,13.40
2017-10-07T21:00:57.899Z,13.30
2017-10-07T21:03:27.372Z,13.30
2017-10-07T21:08:49.131Z,13.20
2017-10-07T21:11:24.190Z,13.20
2017-10-07T21:13:54.077Z,13.20
2017-10-07T21:16:22.759Z,13.20
2017-10-07T21:18:53.420Z,13.10
2017-10-07T21:21:22.115Z,13.00
2017-10-07T21:23:52.674Z,12.70
2017-10-07T21:26:22.131Z,12.60
2017-10-07T21:28:57.178Z,12.50
2017-10-07T21:31:25.932Z,12.40
2017-10-07T21:33:54.633Z,12.30
2017-10-07T21:36:24.184Z,12.20
2017-10-07T21:38:53.640Z,12.10
2017-10-07T21:41:22.326Z,12.00
2017-10-07T21:43:51.018Z,12.00
2017-10-07T21:46:19.713Z,12.00
2017-10-07T21:48:48.399Z,11.80
2017-10-07T21:51:17.088Z,11.70
2017-10-07T21:53:46.635Z,11.60
2017-10-07T21:56:16.256Z,11.50
2017-10-07T21:58:51.194Z,11.50
2017-10-07T22:01:19.967Z,11.40
2017-10-07T22:03:51.712Z,11.40
2017-10-07T22:06:21.288Z,11.40
2017-10-07T22:08:57.108Z,11.30
2017-10-07T22:11:31.034Z,11.50
2017-10-07T22:14:00.884Z,11.40
2017-10-07T22:16:30.513Z,11.40
2017-10-07T22:19:00.903Z,11.30
2017-10-07T22:24:41.567Z,11.20
2017-10-07T22:27:21.064Z,11.20
2017-10-07T22:30:04.968Z,11.20
2017-10-07T22:32:45.625Z,11.20
2017-10-07T22:35:18.176Z,11.10
2017-10-07T22:44:16.920Z,11.20
